PHO weather

Point Hope Airport
Point Hope, Alaska, United States

Public forecast

Using degrees Fahrenheit for public forecast. Weather courtesy of forecast.io.

Current aviation weather report (METAR) for Point Hope Airport

Retrieved 2019/10/20 15:30 UTC (17 minutes ago):

PAPO 201530Z AUTO 10009KT 10SM BKN007 BKN038 OVC050 00/M01 A2969 RMK AO2 FZRANO

Closest aviation forecast (TAF) to Point Hope Airport

Closest forecast is Ralph Wien Memorial Airport, 130.1 nm (241.0 km) SE. Retrieved 2019/10/20 12:33 UTC (3 hours ago):

TAF PAOT 201131Z 2012/2112 10007KT P6SM OVC045